首页
METAR-TAF:

METAR-TAF

机场 :

兰开斯特, 南卡罗来纳州, 美国

纬度: 34-43-22N, 经度: 080-51-17W, 海拔: 148米

当前天气观测

该预报发布于6分钟前的16:35 UTC
风速3节,风向多变
温度 9°C
湿度 43%
气压 1030 hPa
能見度: 16.1公里
天空无云

METAR: KLKR 081635Z AUTO VRB03KT 10SM CLR 09/M03 A3042 RMK AO2

时间: 11:41 (16:41 UTC)


TAF: 丢失

超过4000个机场的气象观测和天气预报(METAR&TAF报告)。

可查询的气象台以黄色和红色小点在地图上表示。

将鼠标移到小点上方,可查看气象台名称。

然后点击查看天气观测和预报。

如需切换地图:点击带黑十字的绿色按钮放大地图;点击带横线的绿色按钮缩小地图;或者点击绿色箭头查看邻近地区的地图。


METAR-TAF: